Ceres, Virginia
Current Conditions -  °F | °C
As of 10:55 AM on Thursday 23 Oct 2014 (Local Time) from KMKJ Reporting Station
Overcast Overcast  
Wind Chill: 43°   Ceiling: 2200
Heat Index: 47°   Visibility: 10mi
Dew Point: 37°   Wind: 10mph
Humidity: 68%   Direction: 310°NW
Pressure: 30.19"   Gusts: 16mph
Location:  37.02°N, 81.34°W
Report Text: KMKJ 231455Z AUTO 31009G14KT 10SM OVC022 09/03 A3019 RMK AO2 T00860030
Loading
Personal Weather Stations






























Interactive Weather Map
Tropical Storm Tracking
New forecast layout! Learn more

10-Day Weather Forecast

Advertisements
Track Severe Weather on mobile